sensor_id;sensor_type;location;lat;lon;timestamp;pressure;altitude;pressure_sealevel;temperature;humidity
54455;BME280;40364;52.270;10.546;2023-06-19T00:00:42;100194.50;;;27.33;37.20
54455;BME280;40364;52.270;10.546;2023-06-19T00:03:08;100186.44;;;27.40;37.00
54455;BME280;40364;52.270;10.546;2023-06-19T00:05:35;100186.28;;;27.13;37.32
54455;BME280;40364;52.270;10.546;2023-06-19T00:08:02;100190.28;;;27.15;37.39
54455;BME280;40364;52.270;10.546;2023-06-19T00:10:33;100192.41;;;27.02;37.53
54455;BME280;40364;52.270;10.546;2023-06-19T00:12:59;100191.88;;;27.16;37.32
54455;BME280;40364;52.270;10.546;2023-06-19T00:15:26;100196.50;;;27.01;37.25
54455;BME280;40364;52.270;10.546;2023-06-19T00:17:55;100185.53;;;27.22;37.07
54455;BME280;40364;52.270;10.546;2023-06-19T00:20:22;100181.47;;;27.32;36.58
54455;BME280;40364;52.270;10.546;2023-06-19T00:22:49;100183.16;;;26.98;37.14
54455;BME280;40364;52.270;10.546;2023-06-19T00:25:17;100178.53;;;27.23;36.88
54455;BME280;40364;52.270;10.546;2023-06-19T00:27:45;100170.97;;;27.29;36.63
54455;BME280;40364;52.270;10.546;2023-06-19T00:30:12;100179.50;;;26.98;37.10
54455;BME280;40364;52.270;10.546;2023-06-19T00:32:38;100166.69;;;26.46;37.58
54455;BME280;40364;52.270;10.546;2023-06-19T00:35:12;100166.47;;;28.94;34.15
54455;BME280;40364;52.270;10.546;2023-06-19T00:37:39;100161.59;;;27.28;36.39
54455;BME280;40364;52.270;10.546;2023-06-19T00:40:14;100175.09;;;26.84;37.14
54455;BME280;40364;52.270;10.546;2023-06-19T00:42:43;100170.56;;;26.74;37.30
54455;BME280;40364;52.270;10.546;2023-06-19T00:45:11;100160.44;;;27.16;37.01
54455;BME280;40364;52.270;10.546;2023-06-19T00:47:37;100164.63;;;27.34;36.45
54455;BME280;40364;52.270;10.546;2023-06-19T00:50:05;100164.09;;;27.17;36.71
54455;BME280;40364;52.270;10.546;2023-06-19T00:52:32;100157.78;;;27.31;36.35
54455;BME280;40364;52.270;10.546;2023-06-19T00:54:59;100160.28;;;26.98;36.67
54455;BME280;40364;52.270;10.546;2023-06-19T00:57:26;100164.06;;;26.95;36.91
54455;BME280;40364;52.270;10.546;2023-06-19T00:59:52;100147.50;;;26.46;37.86
54455;BME280;40364;52.270;10.546;2023-06-19T01:02:22;100139.47;;;27.20;36.65
54455;BME280;40364;52.270;10.546;2023-06-19T01:04:49;100138.09;;;27.02;36.88
54455;BME280;40364;52.270;10.546;2023-06-19T01:07:19;100133.97;;;27.34;36.45
54455;BME280;40364;52.270;10.546;2023-06-19T01:09:51;100137.63;;;27.35;36.76
54455;BME280;40364;52.270;10.546;2023-06-19T01:12:22;100134.56;;;27.20;36.71
54455;BME280;40364;52.270;10.546;2023-06-19T01:14:54;100135.44;;;27.39;36.41
54455;BME280;40364;52.270;10.546;2023-06-19T01:17:25;100125.06;;;27.32;36.22
54455;BME280;40364;52.270;10.546;2023-06-19T01:19:52;100125.78;;;27.14;36.55
54455;BME280;40364;52.270;10.546;2023-06-19T01:22:27;100116.47;;;28.95;33.86
54455;BME280;40364;52.270;10.546;2023-06-19T01:24:53;100099.91;;;27.49;35.52
54455;BME280;40364;52.270;10.546;2023-06-19T01:27:20;100107.13;;;27.32;35.83
54455;BME280;40364;52.270;10.546;2023-06-19T01:29:47;100110.50;;;27.08;36.41
54455;BME280;40364;52.270;10.546;2023-06-19T01:32:17;100099.03;;;26.77;37.19
54455;BME280;40364;52.270;10.546;2023-06-19T01:34:46;100102.88;;;27.05;36.72
54455;BME280;40364;52.270;10.546;2023-06-19T01:37:13;100101.28;;;27.04;36.85
54455;BME280;40364;52.270;10.546;2023-06-19T01:39:45;100084.50;;;26.94;36.96
54455;BME280;40364;52.270;10.546;2023-06-19T01:42:13;100106.13;;;26.73;37.46
54455;BME280;40364;52.270;10.546;2023-06-19T01:44:41;100092.41;;;27.11;36.73
54455;BME280;40364;52.270;10.546;2023-06-19T01:47:09;100098.28;;;27.08;36.78
54455;BME280;40364;52.270;10.546;2023-06-19T01:49:36;100101.78;;;27.43;36.17
54455;BME280;40364;52.270;10.546;2023-06-19T01:52:04;100094.81;;;26.91;37.16
54455;BME280;40364;52.270;10.546;2023-06-19T01:54:30;100080.06;;;27.14;36.85
54455;BME280;40364;52.270;10.546;2023-06-19T01:56:58;100070.25;;;26.72;37.46
54455;BME280;40364;52.270;10.546;2023-06-19T01:59:25;100088.00;;;26.89;37.44
54455;BME280;40364;52.270;10.546;2023-06-19T02:01:52;100078.34;;;26.95;37.20
54455;BME280;40364;52.270;10.546;2023-06-19T02:04:18;100078.16;;;26.90;37.39
54455;BME280;40364;52.270;10.546;2023-06-19T02:06:45;100083.28;;;26.73;37.70
54455;BME280;40364;52.270;10.546;2023-06-19T02:09:12;100092.13;;;26.44;38.30
54455;BME280;40364;52.270;10.546;2023-06-19T02:11:38;100089.78;;;26.52;38.33
54455;BME280;40364;52.270;10.546;2023-06-19T02:14:06;100092.03;;;26.35;38.59
54455;BME280;40364;52.270;10.546;2023-06-19T02:16:33;100085.44;;;26.25;38.60
54455;BME280;40364;52.270;10.546;2023-06-19T02:18:59;100093.25;;;26.46;38.57
54455;BME280;40364;52.270;10.546;2023-06-19T02:21:26;100089.63;;;26.33;38.86
54455;BME280;40364;52.270;10.546;2023-06-19T02:23:53;100090.97;;;26.07;39.31
54455;BME280;40364;52.270;10.546;2023-06-19T02:26:20;100109.06;;;25.91;39.92
54455;BME280;40364;52.270;10.546;2023-06-19T02:28:47;100097.63;;;25.91;40.12
54455;BME280;40364;52.270;10.546;2023-06-19T02:31:15;100101.28;;;25.92;40.39
54455;BME280;40364;52.270;10.546;2023-06-19T02:33:41;100086.88;;;26.42;39.28
54455;BME280;40364;52.270;10.546;2023-06-19T02:36:08;100094.59;;;26.20;39.62
54455;BME280;40364;52.270;10.546;2023-06-19T02:38:35;100092.56;;;26.08;40.06
54455;BME280;40364;52.270;10.546;2023-06-19T02:41:01;100086.19;;;26.38;39.70
54455;BME280;40364;52.270;10.546;2023-06-19T02:43:29;100079.94;;;26.31;39.98
54455;BME280;40364;52.270;10.546;2023-06-19T02:45:56;100092.19;;;26.53;39.14
54455;BME280;40364;52.270;10.546;2023-06-19T02:48:24;100080.56;;;26.47;39.74
54455;BME280;40364;52.270;10.546;2023-06-19T02:50:50;100078.13;;;26.59;39.47
54455;BME280;40364;52.270;10.546;2023-06-19T02:53:17;100074.56;;;25.98;40.46
54455;BME280;40364;52.270;10.546;2023-06-19T02:55:43;100077.00;;;25.74;41.10
54455;BME280;40364;52.270;10.546;2023-06-19T02:58:10;100082.34;;;25.98;40.57
54455;BME280;40364;52.270;10.546;2023-06-19T03:00:37;100081.38;;;26.01;40.61
54455;BME280;40364;52.270;10.546;2023-06-19T03:03:03;100083.75;;;26.15;40.09
54455;BME280;40364;52.270;10.546;2023-06-19T03:05:31;100079.31;;;26.14;40.29
54455;BME280;40364;52.270;10.546;2023-06-19T03:07:58;100078.53;;;26.01;40.60
54455;BME280;40364;52.270;10.546;2023-06-19T03:10:24;100080.75;;;25.97;40.35
54455;BME280;40364;52.270;10.546;2023-06-19T03:12:51;100082.50;;;25.69;41.13
54455;BME280;40364;52.270;10.546;2023-06-19T03:15:18;100080.13;;;26.02;40.65
54455;BME280;40364;52.270;10.546;2023-06-19T03:17:44;100077.78;;;25.88;40.85
54455;BME280;40364;52.270;10.546;2023-06-19T03:20:11;100085.78;;;25.93;40.60
54455;BME280;40364;52.270;10.546;2023-06-19T03:22:40;100082.03;;;25.70;41.21
54455;BME280;40364;52.270;10.546;2023-06-19T03:25:08;100072.69;;;26.04;40.50
54455;BME280;40364;52.270;10.546;2023-06-19T03:27:34;100083.84;;;25.90;41.06
54455;BME280;40364;52.270;10.546;2023-06-19T03:30:02;100073.34;;;26.21;40.26
54455;BME280;40364;52.270;10.546;2023-06-19T03:32:31;100082.19;;;26.36;39.97
54455;BME280;40364;52.270;10.546;2023-06-19T03:34:58;100068.66;;;26.71;39.67
54455;BME280;40364;52.270;10.546;2023-06-19T03:37:24;100069.16;;;26.13;40.35
54455;BME280;40364;52.270;10.546;2023-06-19T03:39:52;100064.94;;;26.39;40.20
54455;BME280;40364;52.270;10.546;2023-06-19T03:42:19;100060.97;;;26.59;39.84
54455;BME280;40364;52.270;10.546;2023-06-19T03:44:45;100070.41;;;26.46;40.12
54455;BME280;40364;52.270;10.546;2023-06-19T03:47:12;100066.25;;;26.69;39.47
54455;BME280;40364;52.270;10.546;2023-06-19T03:49:38;100087.88;;;26.48;40.05
54455;BME280;40364;52.270;10.546;2023-06-19T03:52:06;100086.19;;;26.38;40.43
54455;BME280;40364;52.270;10.546;2023-06-19T03:54:32;100094.50;;;26.11;40.89
54455;BME280;40364;52.270;10.546;2023-06-19T03:57:00;100099.72;;;26.25;41.43
54455;BME280;40364;52.270;10.546;2023-06-19T03:59:27;100102.91;;;26.27;41.20
54455;BME280;40364;52.270;10.546;2023-06-19T04:01:53;100106.59;;;26.15;41.38
54455;BME280;40364;52.270;10.546;2023-06-19T04:04:20;100111.25;;;25.36;43.41
54455;BME280;40364;52.270;10.546;2023-06-19T04:06:47;100105.53;;;25.74;42.95
54455;BME280;40364;52.270;10.546;2023-06-19T04:09:13;100115.34;;;25.73;43.33
54455;BME280;40364;52.270;10.546;2023-06-19T04:11:40;100107.00;;;25.79;43.06
54455;BME280;40364;52.270;10.546;2023-06-19T04:14:08;100117.97;;;25.80;43.48
54455;BME280;40364;52.270;10.546;2023-06-19T04:16:35;100109.75;;;25.57;44.11
54455;BME280;40364;52.270;10.546;2023-06-19T04:19:01;100110.88;;;25.47;44.83
54455;BME280;40364;52.270;10.546;2023-06-19T04:21:28;100115.22;;;25.90;43.50
54455;BME280;40364;52.270;10.546;2023-06-19T04:23:55;100111.91;;;26.26;42.77
54455;BME280;40364;52.270;10.546;2023-06-19T04:26:21;100107.31;;;26.41;42.75
54455;BME280;40364;52.270;10.546;2023-06-19T04:28:49;100111.31;;;26.43;42.97
54455;BME280;40364;52.270;10.546;2023-06-19T04:31:17;100104.53;;;26.72;42.79
54455;BME280;40364;52.270;10.546;2023-06-19T04:33:45;100103.28;;;26.51;43.15
54455;BME280;40364;52.270;10.546;2023-06-19T04:36:11;100122.84;;;26.62;42.90
54455;BME280;40364;52.270;10.546;2023-06-19T04:38:39;100115.63;;;26.48;43.02
54455;BME280;40364;52.270;10.546;2023-06-19T04:41:06;100113.97;;;26.81;42.45
54455;BME280;40364;52.270;10.546;2023-06-19T04:43:32;100114.56;;;26.98;42.03
54455;BME280;40364;52.270;10.546;2023-06-19T04:46:00;100114.75;;;26.82;41.94
54455;BME280;40364;52.270;10.546;2023-06-19T04:48:30;100110.78;;;27.01;42.04
54455;BME280;40364;52.270;10.546;2023-06-19T04:50:56;100118.16;;;26.68;42.45
54455;BME280;40364;52.270;10.546;2023-06-19T04:53:26;100113.16;;;26.37;43.23
54455;BME280;40364;52.270;10.546;2023-06-19T04:55:53;100119.59;;;26.16;43.95
54455;BME280;40364;52.270;10.546;2023-06-19T04:58:20;100127.56;;;26.21;44.19
54455;BME280;40364;52.270;10.546;2023-06-19T05:00:47;100127.66;;;25.96;44.38
54455;BME280;40364;52.270;10.546;2023-06-19T05:03:16;100131.63;;;25.98;44.71
54455;BME280;40364;52.270;10.546;2023-06-19T05:05:44;100128.84;;;26.20;44.87
54455;BME280;40364;52.270;10.546;2023-06-19T05:08:12;100121.38;;;26.35;43.73
54455;BME280;40364;52.270;10.546;2023-06-19T05:10:39;100118.34;;;26.95;42.39
54455;BME280;40364;52.270;10.546;2023-06-19T05:13:05;100111.91;;;27.35;41.79
54455;BME280;40364;52.270;10.546;2023-06-19T05:15:32;100112.91;;;26.88;42.73
54455;BME280;40364;52.270;10.546;2023-06-19T05:17:59;100122.28;;;26.32;43.03
54455;BME280;40364;52.270;10.546;2023-06-19T05:20:25;100123.06;;;26.89;41.93
54455;BME280;40364;52.270;10.546;2023-06-19T05:22:53;100128.31;;;26.69;41.97
54455;BME280;40364;52.270;10.546;2023-06-19T05:25:20;100122.84;;;26.62;42.65
54455;BME280;40364;52.270;10.546;2023-06-19T05:27:47;100107.78;;;27.05;41.87
54455;BME280;40364;52.270;10.546;2023-06-19T05:30:14;100105.44;;;27.43;41.13
54455;BME280;40364;52.270;10.546;2023-06-19T05:32:41;100107.69;;;27.58;41.04
54455;BME280;40364;52.270;10.546;2023-06-19T05:35:08;100123.53;;;26.88;42.54
54455;BME280;40364;52.270;10.546;2023-06-19T05:37:34;100126.72;;;26.68;43.22
54455;BME280;40364;52.270;10.546;2023-06-19T05:40:06;100118.22;;;26.99;42.52
54455;BME280;40364;52.270;10.546;2023-06-19T05:42:33;100119.16;;;26.52;44.07
54455;BME280;40364;52.270;10.546;2023-06-19T05:44:59;100117.50;;;26.29;46.03
54455;BME280;40364;52.270;10.546;2023-06-19T05:47:27;100110.97;;;26.41;47.08
54455;BME280;40364;52.270;10.546;2023-06-19T05:49:56;100105.19;;;26.76;47.93
54455;BME280;40364;52.270;10.546;2023-06-19T05:52:22;100115.56;;;26.26;49.18
54455;BME280;40364;52.270;10.546;2023-06-19T05:54:49;100115.91;;;26.28;48.96
54455;BME280;40364;52.270;10.546;2023-06-19T05:57:17;100116.09;;;26.68;48.98
54455;BME280;40364;52.270;10.546;2023-06-19T05:59:46;100116.16;;;26.77;48.65
54455;BME280;40364;52.270;10.546;2023-06-19T06:02:12;100128.91;;;27.07;47.75
54455;BME280;40364;52.270;10.546;2023-06-19T06:04:39;100157.16;;;26.83;48.39
54455;BME280;40364;52.270;10.546;2023-06-19T06:07:06;100165.53;;;26.78;48.96
54455;BME280;40364;52.270;10.546;2023-06-19T06:09:33;100169.28;;;26.06;50.71
54455;BME280;40364;52.270;10.546;2023-06-19T06:11:59;100176.22;;;26.05;53.49
54455;BME280;40364;52.270;10.546;2023-06-19T06:14:27;100179.34;;;25.85;53.93
54455;BME280;40364;52.270;10.546;2023-06-19T06:16:54;100165.25;;;26.16;52.64
54455;BME280;40364;52.270;10.546;2023-06-19T06:19:21;100147.19;;;27.10;50.26
54455;BME280;40364;52.270;10.546;2023-06-19T06:21:48;100149.06;;;27.35;47.48
54455;BME280;40364;52.270;10.546;2023-06-19T06:24:14;100149.91;;;27.75;51.13
54455;BME280;40364;52.270;10.546;2023-06-19T06:26:41;100159.13;;;27.70;48.95
54455;BME280;40364;52.270;10.546;2023-06-19T06:29:08;100162.63;;;27.74;49.83
54455;BME280;40364;52.270;10.546;2023-06-19T06:31:37;100167.75;;;27.48;49.28
54455;BME280;40364;52.270;10.546;2023-06-19T06:34:04;100167.31;;;27.59;48.37
54455;BME280;40364;52.270;10.546;2023-06-19T06:36:31;100180.47;;;27.78;47.04
54455;BME280;40364;52.270;10.546;2023-06-19T06:38:57;100191.34;;;28.02;46.53
54455;BME280;40364;52.270;10.546;2023-06-19T06:41:24;100203.16;;;26.98;49.01
54455;BME280;40364;52.270;10.546;2023-06-19T06:43:51;100193.16;;;26.81;49.90
54455;BME280;40364;52.270;10.546;2023-06-19T06:46:17;100182.66;;;27.52;48.33
54455;BME280;40364;52.270;10.546;2023-06-19T06:48:45;100183.50;;;28.61;45.70
54455;BME280;40364;52.270;10.546;2023-06-19T06:51:12;100176.34;;;28.38;45.26
54455;BME280;40364;52.270;10.546;2023-06-19T06:53:38;100174.88;;;28.33;46.21
54455;BME280;40364;52.270;10.546;2023-06-19T06:56:05;100171.84;;;29.10;44.48
54455;BME280;40364;52.270;10.546;2023-06-19T06:58:32;100176.16;;;28.78;44.30
54455;BME280;40364;52.270;10.546;2023-06-19T07:00:58;100199.00;;;27.43;47.40
54455;BME280;40364;52.270;10.546;2023-06-19T07:03:25;100183.94;;;27.73;47.12
54455;BME280;40364;52.270;10.546;2023-06-19T07:05:56;100175.81;;;29.22;43.99
54455;BME280;40364;52.270;10.546;2023-06-19T07:08:22;100185.09;;;28.62;44.24
54455;BME280;40364;52.270;10.546;2023-06-19T07:10:49;100177.88;;;27.71;46.81
54455;BME280;40364;52.270;10.546;2023-06-19T07:13:16;100187.22;;;27.63;47.61
54455;BME280;40364;52.270;10.546;2023-06-19T07:15:42;100187.13;;;28.25;46.23
54455;BME280;40364;52.270;10.546;2023-06-19T07:18:09;100183.66;;;28.39;45.71
54455;BME280;40364;52.270;10.546;2023-06-19T07:20:35;100186.84;;;27.92;45.96
54455;BME280;40364;52.270;10.546;2023-06-19T07:23:03;100191.28;;;28.42;45.23
54455;BME280;40364;52.270;10.546;2023-06-19T07:25:30;100183.56;;;28.11;45.97
54455;BME280;40364;52.270;10.546;2023-06-19T07:27:59;100197.38;;;28.99;44.44
54455;BME280;40364;52.270;10.546;2023-06-19T07:30:26;100191.16;;;28.91;44.18
54455;BME280;40364;52.270;10.546;2023-06-19T07:32:53;100198.28;;;29.32;42.53
54455;BME280;40364;52.270;10.546;2023-06-19T07:35:19;100205.13;;;29.16;43.09
54455;BME280;40364;52.270;10.546;2023-06-19T07:37:46;100196.19;;;29.42;43.56
54455;BME280;40364;52.270;10.546;2023-06-19T07:40:14;100195.44;;;29.14;42.80
54455;BME280;40364;52.270;10.546;2023-06-19T07:42:41;100198.25;;;29.51;42.82
54455;BME280;40364;52.270;10.546;2023-06-19T07:45:09;100200.69;;;30.66;40.79
54455;BME280;40364;52.270;10.546;2023-06-19T07:47:36;100196.34;;;29.90;40.98
54455;BME280;40364;52.270;10.546;2023-06-19T07:50:03;100199.38;;;29.44;42.38
54455;BME280;40364;52.270;10.546;2023-06-19T07:52:30;100200.47;;;29.37;42.81
54455;BME280;40364;52.270;10.546;2023-06-19T07:54:57;100199.53;;;30.25;41.49
54455;BME280;40364;52.270;10.546;2023-06-19T07:57:26;100207.88;;;31.00;40.38
54455;BME280;40364;52.270;10.546;2023-06-19T07:59:54;100201.03;;;30.11;40.99
54455;BME280;40364;52.270;10.546;2023-06-19T08:02:21;100199.66;;;29.37;41.69
54455;BME280;40364;52.270;10.546;2023-06-19T08:04:49;100189.78;;;29.56;41.76
54455;BME280;40364;52.270;10.546;2023-06-19T08:07:16;100192.53;;;29.83;41.81
54455;BME280;40364;52.270;10.546;2023-06-19T08:09:43;100193.09;;;29.97;41.12
54455;BME280;40364;52.270;10.546;2023-06-19T08:12:10;100183.66;;;30.29;41.09
54455;BME280;40364;52.270;10.546;2023-06-19T08:14:38;100186.97;;;30.61;41.33
54455;BME280;40364;52.270;10.546;2023-06-19T08:17:05;100185.03;;;30.67;40.90
54455;BME280;40364;52.270;10.546;2023-06-19T08:19:32;100186.13;;;30.69;41.21
54455;BME280;40364;52.270;10.546;2023-06-19T08:21:58;100186.97;;;30.61;41.11
54455;BME280;40364;52.270;10.546;2023-06-19T08:24:25;100188.47;;;31.83;38.97
54455;BME280;40364;52.270;10.546;2023-06-19T08:26:52;100197.41;;;31.11;40.07
54455;BME280;40364;52.270;10.546;2023-06-19T08:29:19;100196.75;;;29.97;42.02
54455;BME280;40364;52.270;10.546;2023-06-19T08:31:47;100202.63;;;29.70;43.24
54455;BME280;40364;52.270;10.546;2023-06-19T08:34:14;100198.41;;;29.89;42.56
54455;BME280;40364;52.270;10.546;2023-06-19T08:36:41;100196.63;;;30.48;42.33
54455;BME280;40364;52.270;10.546;2023-06-19T08:39:08;100199.13;;;30.32;42.01
54455;BME280;40364;52.270;10.546;2023-06-19T08:41:35;100200.34;;;29.83;42.21
54455;BME280;40364;52.270;10.546;2023-06-19T08:44:03;100204.56;;;29.97;42.06
54455;BME280;40364;52.270;10.546;2023-06-19T08:46:30;100199.25;;;30.37;42.30
54455;BME280;40364;52.270;10.546;2023-06-19T08:48:58;100190.47;;;30.65;42.41
54455;BME280;40364;52.270;10.546;2023-06-19T08:51:26;100202.81;;;30.80;41.88
54455;BME280;40364;52.270;10.546;2023-06-19T08:53:56;100189.47;;;30.68;42.88
54455;BME280;40364;52.270;10.546;2023-06-19T08:56:23;100194.38;;;30.91;42.77
54455;BME280;40364;52.270;10.546;2023-06-19T08:58:50;100197.75;;;30.90;42.75
54455;BME280;40364;52.270;10.546;2023-06-19T09:01:17;100209.59;;;30.44;43.86
54455;BME280;40364;52.270;10.546;2023-06-19T09:03:44;100194.13;;;30.65;42.74
54455;BME280;40364;52.270;10.546;2023-06-19T09:06:16;100194.25;;;30.47;40.88
54455;BME280;40364;52.270;10.546;2023-06-19T09:08:42;100191.97;;;30.75;39.58
54455;BME280;40364;52.270;10.546;2023-06-19T09:11:10;100199.63;;;30.78;38.57
54455;BME280;40364;52.270;10.546;2023-06-19T09:13:37;100198.66;;;30.81;36.75
54455;BME280;40364;52.270;10.546;2023-06-19T09:16:06;100188.94;;;32.72;35.89
54455;BME280;40364;52.270;10.546;2023-06-19T09:18:42;100193.84;;;31.61;36.73
54455;BME280;40364;52.270;10.546;2023-06-19T09:21:16;100199.09;;;32.12;35.36
54455;BME280;40364;52.270;10.546;2023-06-19T09:23:45;100202.50;;;32.45;34.97
54455;BME280;40364;52.270;10.546;2023-06-19T09:26:14;100204.06;;;32.26;35.67
54455;BME280;40364;52.270;10.546;2023-06-19T09:28:43;100205.13;;;31.94;35.27
54455;BME280;40364;52.270;10.546;2023-06-19T09:31:10;100196.19;;;31.92;35.19
54455;BME280;40364;52.270;10.546;2023-06-19T09:33:38;100187.44;;;32.76;34.22
54455;BME280;40364;52.270;10.546;2023-06-19T09:36:05;100190.66;;;32.43;34.25
54455;BME280;40364;52.270;10.546;2023-06-19T09:38:35;100184.78;;;32.32;35.33
54455;BME280;40364;52.270;10.546;2023-06-19T09:41:04;100186.00;;;32.46;34.80
54455;BME280;40364;52.270;10.546;2023-06-19T09:43:34;100188.59;;;32.64;33.84
54455;BME280;40364;52.270;10.546;2023-06-19T09:46:02;100188.75;;;32.20;33.60
54455;BME280;40364;52.270;10.546;2023-06-19T09:48:30;100187.00;;;32.23;33.78
54455;BME280;40364;52.270;10.546;2023-06-19T09:51:02;100184.25;;;33.21;32.67
54455;BME280;40364;52.270;10.546;2023-06-19T09:53:30;100190.59;;;34.19;30.82
54455;BME280;40364;52.270;10.546;2023-06-19T09:55:59;100193.22;;;34.71;29.42
54455;BME280;40364;52.270;10.546;2023-06-19T09:58:26;100198.75;;;33.52;30.38
54455;BME280;40364;52.270;10.546;2023-06-19T10:00:55;100190.13;;;33.06;31.66
54455;BME280;40364;52.270;10.546;2023-06-19T10:03:32;100187.22;;;32.80;32.51
54455;BME280;40364;52.270;10.546;2023-06-19T10:06:00;100185.94;;;32.40;33.91
54455;BME280;40364;52.270;10.546;2023-06-19T10:08:38;100177.94;;;32.70;33.41
54455;BME280;40364;52.270;10.546;2023-06-19T10:11:07;100184.19;;;32.28;33.93
54455;BME280;40364;52.270;10.546;2023-06-19T10:13:35;100187.16;;;31.99;33.84
54455;BME280;40364;52.270;10.546;2023-06-19T10:16:04;100193.28;;;31.71;34.56
54455;BME280;40364;52.270;10.546;2023-06-19T10:18:44;100196.16;;;32.62;33.14
54455;BME280;40364;52.270;10.546;2023-06-19T10:21:15;100198.19;;;32.76;31.77
54455;BME280;40364;52.270;10.546;2023-06-19T10:23:42;100200.63;;;32.42;31.54
54455;BME280;40364;52.270;10.546;2023-06-19T10:26:15;100203.81;;;32.85;30.81
54455;BME280;40364;52.270;10.546;2023-06-19T10:28:46;100208.50;;;34.29;27.77
54455;BME280;40364;52.270;10.546;2023-06-19T10:31:16;100204.53;;;34.74;26.85
54455;BME280;40364;52.270;10.546;2023-06-19T10:33:43;100205.25;;;34.10;28.34
54455;BME280;40364;52.270;10.546;2023-06-19T10:36:15;100210.47;;;33.74;28.65
54455;BME280;40364;52.270;10.546;2023-06-19T10:38:44;100207.06;;;33.76;29.18
54455;BME280;40364;52.270;10.546;2023-06-19T10:41:16;100211.53;;;33.45;30.77
54455;BME280;40364;52.270;10.546;2023-06-19T10:43:52;100208.50;;;33.29;31.15
54455;BME280;40364;52.270;10.546;2023-06-19T10:46:21;100213.22;;;33.84;31.37
54455;BME280;40364;52.270;10.546;2023-06-19T10:48:50;100222.88;;;34.12;31.45
54455;BME280;40364;52.270;10.546;2023-06-19T10:51:23;100221.50;;;33.76;33.17
54455;BME280;40364;52.270;10.546;2023-06-19T10:53:50;100221.38;;;34.28;32.10
54455;BME280;40364;52.270;10.546;2023-06-19T10:56:21;100222.28;;;35.04;31.49
54455;BME280;40364;52.270;10.546;2023-06-19T10:58:56;100215.28;;;34.63;32.18
54455;BME280;40364;52.270;10.546;2023-06-19T11:01:32;100214.63;;;34.85;31.57
54455;BME280;40364;52.270;10.546;2023-06-19T11:03:59;100213.34;;;36.59;28.43
54455;BME280;40364;52.270;10.546;2023-06-19T11:06:28;100208.66;;;35.27;30.78
54455;BME280;40364;52.270;10.546;2023-06-19T11:08:55;100222.16;;;34.71;31.01
54455;BME280;40364;52.270;10.546;2023-06-19T11:11:35;100212.50;;;34.31;30.89
54455;BME280;40364;52.270;10.546;2023-06-19T11:14:02;100208.06;;;34.95;30.57
54455;BME280;40364;52.270;10.546;2023-06-19T11:16:28;100213.56;;;34.82;30.78
54455;BME280;40364;52.270;10.546;2023-06-19T11:18:55;100207.00;;;34.93;30.55
54455;BME280;40364;52.270;10.546;2023-06-19T11:21:29;100207.03;;;36.49;28.68
54455;BME280;40364;52.270;10.546;2023-06-19T11:23:58;100204.53;;;33.52;31.88
54455;BME280;40364;52.270;10.546;2023-06-19T11:26:27;100199.28;;;33.82;32.82
54455;BME280;40364;52.270;10.546;2023-06-19T11:28:54;100191.28;;;34.45;31.05
54455;BME280;40364;52.270;10.546;2023-06-19T11:31:25;100197.91;;;35.67;30.07
54455;BME280;40364;52.270;10.546;2023-06-19T11:33:57;100189.84;;;37.15;27.39
54455;BME280;40364;52.270;10.546;2023-06-19T11:36:24;100197.81;;;37.50;27.00
54455;BME280;40364;52.270;10.546;2023-06-19T11:38:51;100204.78;;;37.65;27.68
54455;BME280;40364;52.270;10.546;2023-06-19T11:41:26;100208.00;;;34.30;32.16
54455;BME280;40364;52.270;10.546;2023-06-19T11:44:02;100209.78;;;35.91;30.23
54455;BME280;40364;52.270;10.546;2023-06-19T11:46:30;100207.34;;;35.28;30.78
54455;BME280;40364;52.270;10.546;2023-06-19T11:49:07;100212.00;;;34.92;31.90
54455;BME280;40364;52.270;10.546;2023-06-19T11:51:34;100213.19;;;35.62;31.49
54455;BME280;40364;52.270;10.546;2023-06-19T11:54:01;100209.75;;;35.52;31.69
54455;BME280;40364;52.270;10.546;2023-06-19T11:56:29;100209.19;;;35.15;32.04
54455;BME280;40364;52.270;10.546;2023-06-19T11:58:56;100213.47;;;35.92;31.58
54455;BME280;40364;52.270;10.546;2023-06-19T12:01:23;100203.28;;;34.87;32.75
54455;BME280;40364;52.270;10.546;2023-06-19T12:03:50;100210.03;;;35.82;31.69
54455;BME280;40364;52.270;10.546;2023-06-19T12:06:17;100212.41;;;35.61;32.02
54455;BME280;40364;52.270;10.546;2023-06-19T12:08:44;100205.47;;;37.06;30.68
54455;BME280;40364;52.270;10.546;2023-06-19T12:11:11;100206.38;;;36.84;31.36
54455;BME280;40364;52.270;10.546;2023-06-19T12:13:40;100218.88;;;36.51;31.48
54455;BME280;40364;52.270;10.546;2023-06-19T12:16:07;100208.16;;;37.39;29.93
54455;BME280;40364;52.270;10.546;2023-06-19T12:18:34;100202.91;;;37.73;30.20
54455;BME280;40364;52.270;10.546;2023-06-19T12:21:01;100202.50;;;37.23;30.22
54455;BME280;40364;52.270;10.546;2023-06-19T12:23:27;100209.31;;;36.73;30.93
54455;BME280;40364;52.270;10.546;2023-06-19T12:25:54;100209.56;;;36.81;30.99
54455;BME280;40364;52.270;10.546;2023-06-19T12:28:21;100213.81;;;37.92;29.46
54455;BME280;40364;52.270;10.546;2023-06-19T12:30:49;100212.06;;;38.13;28.87
54455;BME280;40364;52.270;10.546;2023-06-19T12:33:17;100213.75;;;39.32;27.41
54455;BME280;40364;52.270;10.546;2023-06-19T12:35:44;100215.75;;;39.88;26.58
54455;BME280;40364;52.270;10.546;2023-06-19T12:38:11;100218.44;;;38.12;28.59
54455;BME280;40364;52.270;10.546;2023-06-19T12:40:38;100214.28;;;39.82;26.50
54455;BME280;40364;52.270;10.546;2023-06-19T12:43:05;100217.09;;;40.46;25.92